createdAt,value
2018-08-11T00:01:55.953Z,100173.25
2018-08-11T00:04:23.673Z,100174.34
2018-08-11T00:06:51.407Z,100171.81
2018-08-11T00:09:19.131Z,100173.05
2018-08-11T00:11:46.816Z,100167.72
2018-08-11T00:14:14.539Z,100162.93
2018-08-11T00:16:42.293Z,100168.67
2018-08-11T00:19:09.971Z,100163.55
2018-08-11T00:21:37.736Z,100167.71
2018-08-11T00:24:05.501Z,100163.37
2018-08-11T00:26:33.201Z,100165.19
2018-08-11T00:29:00.926Z,100164.83
2018-08-11T00:31:28.657Z,100156.61
2018-08-11T00:33:56.682Z,100157.98
2018-08-11T00:36:24.482Z,100163.06
2018-08-11T00:38:52.205Z,100162.62
2018-08-11T00:41:19.919Z,100154.45
2018-08-11T00:43:47.585Z,100161.56
2018-08-11T00:46:15.294Z,100162.87
2018-08-11T00:48:42.989Z,100171.29
2018-08-11T00:51:10.696Z,100171.76
2018-08-11T00:53:38.392Z,100165.08
2018-08-11T00:56:06.157Z,100166.45
2018-08-11T00:58:33.913Z,100163.78
2018-08-11T01:01:01.625Z,100152.56
2018-08-11T01:03:29.305Z,100156.61
2018-08-11T01:05:56.974Z,100148.79
2018-08-11T01:08:24.669Z,100152.30
2018-08-11T01:10:52.343Z,100149.70
2018-08-11T01:13:20.083Z,100155.60
2018-08-11T01:15:47.778Z,100151.02
2018-08-11T01:18:15.446Z,100156.63
2018-08-11T01:20:43.144Z,100154.88
2018-08-11T01:23:10.853Z,100154.08
2018-08-11T01:25:38.566Z,100144.56
2018-08-11T01:28:06.324Z,100143.66
2018-08-11T01:30:34.013Z,100137.31
2018-08-11T01:33:01.851Z,100131.91
2018-08-11T01:35:29.513Z,100128.13
2018-08-11T01:37:57.212Z,100124.13
2018-08-11T01:40:24.881Z,100132.37
2018-08-11T01:42:52.565Z,100137.00
2018-08-11T01:45:20.311Z,100133.57
2018-08-11T01:47:48.081Z,100133.64
2018-08-11T01:50:16.206Z,100134.38
2018-08-11T01:52:45.139Z,100134.38
2018-08-11T01:55:14.407Z,100134.83
2018-08-11T01:57:42.165Z,100123.31
2018-08-11T02:00:11.728Z,100123.55
2018-08-11T02:02:39.833Z,100123.31
2018-08-11T02:05:08.628Z,100123.31
2018-08-11T02:07:36.796Z,100123.48
2018-08-11T02:10:06.345Z,100124.84
2018-08-11T02:12:34.077Z,100119.00
2018-08-11T02:15:01.830Z,100117.63
2018-08-11T02:17:29.525Z,100113.86
2018-08-11T02:19:57.228Z,100115.23
2018-08-11T02:22:24.958Z,100120.20
2018-08-11T02:24:52.705Z,100119.91
2018-08-11T02:27:20.406Z,100116.87
2018-08-11T02:29:48.118Z,100115.95
2018-08-11T02:32:15.810Z,100110.88
2018-08-11T02:34:43.573Z,100113.61
2018-08-11T02:37:11.295Z,100115.42
2018-08-11T02:39:38.958Z,100121.72
2018-08-11T02:42:06.721Z,100128.63
2018-08-11T02:44:34.391Z,100131.27
2018-08-11T02:47:02.136Z,100128.45
2018-08-11T02:49:29.802Z,100125.91
2018-08-11T02:51:57.439Z,100133.12
2018-08-11T02:54:25.101Z,100131.20
2018-08-11T02:56:52.753Z,100133.58
2018-08-11T02:59:24.068Z,100131.77
2018-08-11T03:01:52.569Z,100130.75
2018-08-11T03:04:20.350Z,100124.42
2018-08-11T03:06:48.031Z,100127.45
2018-08-11T03:09:15.698Z,100132.22
2018-08-11T03:11:43.409Z,100129.40
2018-08-11T03:14:11.146Z,100128.63
2018-08-11T03:16:38.745Z,100125.24
2018-08-11T03:19:06.411Z,100123.19
2018-08-11T03:21:34.081Z,100127.19
2018-08-11T03:24:01.782Z,100129.89
2018-08-11T03:26:29.563Z,100138.33
2018-08-11T03:28:57.257Z,100130.80
2018-08-11T03:31:24.929Z,100127.48
2018-08-11T03:33:52.613Z,100127.19
2018-08-11T03:36:20.305Z,100136.32
2018-08-11T03:38:47.984Z,100137.92
2018-08-11T03:41:15.718Z,100141.45
2018-08-11T03:43:43.372Z,100151.45
2018-08-11T03:46:11.038Z,100143.86
2018-08-11T03:48:38.735Z,100136.82
2018-08-11T03:51:06.448Z,100128.98
2018-08-11T03:53:34.177Z,100127.05
2018-08-11T03:56:01.871Z,100117.31
2018-08-11T03:58:29.530Z,100112.46
2018-08-11T04:00:57.221Z,100108.30
2018-08-11T04:03:24.881Z,100096.81
2018-08-11T04:05:52.535Z,100095.45
2018-08-11T04:08:20.180Z,100103.59
2018-08-11T04:10:47.818Z,100102.88
2018-08-11T04:13:15.496Z,100098.03
2018-08-11T04:15:43.162Z,100095.66
2018-08-11T04:18:10.822Z,100093.98
2018-08-11T04:20:38.545Z,100091.02
2018-08-11T04:23:06.200Z,100102.19
2018-08-11T04:25:33.949Z,100107.95
2018-08-11T04:28:01.625Z,100104.94
2018-08-11T04:30:29.285Z,100108.08
2018-08-11T04:32:56.957Z,100102.91
2018-08-11T04:35:24.744Z,100118.20
2018-08-11T04:37:52.494Z,100123.00
2018-08-11T04:40:20.194Z,100126.58
2018-08-11T04:42:47.867Z,100136.24
2018-08-11T04:45:15.533Z,100139.09
2018-08-11T04:47:43.241Z,100148.35
2018-08-11T04:50:10.942Z,100145.33
2018-08-11T04:52:38.584Z,100147.56
2018-08-11T04:55:06.280Z,100148.97
2018-08-11T04:57:33.957Z,100145.43
2018-08-11T05:00:01.625Z,100148.50
2018-08-11T05:02:29.346Z,100145.67
2018-08-11T05:04:57.030Z,100155.78
2018-08-11T05:07:24.710Z,100162.82
2018-08-11T05:09:52.393Z,100156.86
2018-08-11T05:12:20.054Z,100166.94
2018-08-11T05:14:47.822Z,100169.48
2018-08-11T05:17:15.497Z,100171.59
2018-08-11T05:19:43.149Z,100167.22
2018-08-11T05:22:10.821Z,100163.40
2018-08-11T05:24:38.474Z,100166.34
2018-08-11T05:27:06.183Z,100168.47
2018-08-11T05:29:33.863Z,100173.56
2018-08-11T05:32:01.755Z,100172.50
2018-08-11T05:34:29.429Z,100156.61
2018-08-11T05:36:57.123Z,100163.73
2018-08-11T05:39:24.821Z,100165.09
2018-08-11T05:41:52.517Z,100149.63
2018-08-11T05:44:20.233Z,100148.50
2018-08-11T05:46:47.905Z,100146.66
2018-08-11T05:49:15.612Z,100143.66
2018-08-11T05:51:43.297Z,100164.89
2018-08-11T05:54:10.941Z,100167.73
2018-08-11T05:56:38.674Z,100176.70
2018-08-11T05:59:06.416Z,100159.06
2018-08-11T06:01:34.105Z,100163.84
2018-08-11T06:04:01.916Z,100167.34
2018-08-11T06:06:29.566Z,100168.91
2018-08-11T06:08:57.263Z,100171.55
2018-08-11T06:11:24.953Z,100163.30
2018-08-11T06:13:52.617Z,100158.94
2018-08-11T06:16:20.340Z,100148.66
2018-08-11T06:18:48.089Z,100144.56
2018-08-11T06:21:15.884Z,100140.59
2018-08-11T06:23:43.537Z,100153.08
2018-08-11T06:26:11.265Z,100146.92
2018-08-11T06:28:38.998Z,100143.19
2018-08-11T06:31:06.702Z,100143.45
2018-08-11T06:33:34.391Z,100153.18
2018-08-11T06:36:02.079Z,100148.31
2018-08-11T06:38:29.776Z,100147.87
2018-08-11T06:40:57.644Z,100144.94
2018-08-11T06:43:25.190Z,100137.01
2018-08-11T06:45:52.893Z,100133.19
2018-08-11T06:48:20.590Z,100135.48
2018-08-11T06:50:48.282Z,100145.69
2018-08-11T06:53:15.981Z,100143.06
2018-08-11T06:55:43.666Z,100130.39
2018-08-11T06:58:11.325Z,100129.45
2018-08-11T07:00:38.985Z,100127.17
2018-08-11T07:03:06.779Z,100133.41
2018-08-11T07:05:34.438Z,100139.91
2018-08-11T07:08:02.133Z,100129.11
2018-08-11T07:10:29.813Z,100135.31
2018-08-11T07:12:57.684Z,100134.91
2018-08-11T07:15:25.416Z,100134.11
2018-08-11T07:17:53.073Z,100131.34
2018-08-11T07:20:20.728Z,100128.89
2018-08-11T07:22:48.392Z,100135.53
2018-08-11T07:25:16.096Z,100126.34
2018-08-11T07:27:43.864Z,100127.11
2018-08-11T07:30:11.595Z,100131.25
2018-08-11T07:32:39.260Z,100128.05
2018-08-11T07:35:06.968Z,100125.95
2018-08-11T07:37:34.761Z,100117.80
2018-08-11T07:40:03.810Z,100128.59
2018-08-11T07:42:31.562Z,100118.81
2018-08-11T07:44:59.231Z,100123.66
2018-08-11T07:47:27.049Z,100113.00
2018-08-11T07:49:54.694Z,100118.41
2018-08-11T07:52:22.353Z,100117.33
2018-08-11T07:54:50.022Z,100116.41
2018-08-11T07:57:17.717Z,100108.97
2018-08-11T07:59:45.515Z,100111.96
2018-08-11T08:02:13.188Z,100114.67
2018-08-11T08:04:40.960Z,100110.98
2018-08-11T08:07:08.778Z,100108.21
2018-08-11T08:09:36.446Z,100109.08
2018-08-11T08:12:04.174Z,100116.11
2018-08-11T08:14:31.843Z,100114.83
2018-08-11T08:16:59.487Z,100111.22
2018-08-11T08:19:27.199Z,100101.92
2018-08-11T08:21:54.909Z,100101.48
2018-08-11T08:24:22.630Z,100108.80
2018-08-11T08:26:50.355Z,100108.95
2018-08-11T08:29:17.997Z,100111.94
2018-08-11T08:31:45.694Z,100107.63
2018-08-11T08:34:13.392Z,100106.08
2018-08-11T08:36:41.131Z,100098.70
2018-08-11T08:39:11.265Z,100100.70
2018-08-11T08:41:39.179Z,100099.16
2018-08-11T08:44:06.971Z,100104.55
2018-08-11T08:46:34.631Z,100096.70
2018-08-11T08:49:02.314Z,100099.06
2018-08-11T08:51:29.985Z,100099.30
2018-08-11T08:53:57.731Z,100097.00
2018-08-11T08:56:25.499Z,100093.78
2018-08-11T08:58:53.380Z,100101.06
2018-08-11T09:01:21.083Z,100095.86
2018-08-11T09:03:48.786Z,100096.62
2018-08-11T09:06:16.464Z,100090.16
2018-08-11T09:08:44.152Z,100089.41
2018-08-11T09:11:11.855Z,100087.27
2018-08-11T09:13:39.540Z,100094.06
2018-08-11T09:16:07.563Z,100093.58
2018-08-11T09:18:35.354Z,100089.62
2018-08-11T09:21:03.065Z,100083.97
2018-08-11T09:23:30.746Z,100077.08
2018-08-11T09:25:58.408Z,100076.08
2018-08-11T09:28:26.117Z,100073.35
2018-08-11T09:30:53.857Z,100070.68
2018-08-11T09:33:21.543Z,100084.85
2018-08-11T09:35:49.226Z,100069.94
2018-08-11T09:38:17.000Z,100062.40
2018-08-11T09:40:44.697Z,100058.48
2018-08-11T09:43:12.426Z,100046.89
2018-08-11T09:45:40.113Z,100057.90
2018-08-11T09:48:07.845Z,100058.07
2018-08-11T09:50:35.521Z,100051.33
2018-08-11T09:53:03.258Z,100037.80
2018-08-11T09:55:31.262Z,100043.22
2018-08-11T09:57:58.925Z,100035.94
2018-08-11T10:00:32.176Z,100027.15
2018-08-11T10:02:59.870Z,100019.72
2018-08-11T10:05:27.604Z,100023.40
2018-08-11T10:07:55.345Z,100020.23
2018-08-11T10:10:23.038Z,100021.55
2018-08-11T10:12:50.730Z,100019.23
2018-08-11T10:15:18.477Z,100011.38
2018-08-11T10:17:46.152Z,100011.50
2018-08-11T10:20:13.851Z,100013.61
2018-08-11T10:22:41.608Z,100009.38
2018-08-11T10:25:09.301Z,99998.53
2018-08-11T10:27:36.972Z,99984.69
2018-08-11T10:30:06.004Z,99987.25
2018-08-11T10:32:33.790Z,99983.73
2018-08-11T10:35:01.530Z,99985.80
2018-08-11T10:37:29.198Z,99984.27
2018-08-11T10:39:56.919Z,99983.63
2018-08-11T10:42:24.581Z,99978.83
2018-08-11T10:44:52.281Z,99967.44
2018-08-11T10:47:20.030Z,99970.09
2018-08-11T10:49:47.691Z,99970.41
2018-08-11T10:52:15.344Z,99966.31
2018-08-11T10:54:43.030Z,99979.48
2018-08-11T10:57:10.713Z,99973.70
2018-08-11T10:59:38.414Z,99978.82
2018-08-11T11:02:06.550Z,99974.12
2018-08-11T11:04:34.223Z,99955.49
2018-08-11T11:07:01.927Z,99956.89
2018-08-11T11:09:29.589Z,99961.36
2018-08-11T11:11:57.286Z,99940.61
2018-08-11T11:14:25.023Z,99949.50
2018-08-11T11:16:52.657Z,99949.53
2018-08-11T11:19:20.337Z,99956.27
2018-08-11T11:21:47.995Z,99945.92
2018-08-11T11:24:15.715Z,99939.94
2018-08-11T11:26:43.827Z,99941.03
2018-08-11T11:29:11.523Z,99939.04
2018-08-11T11:31:40.088Z,99941.19
2018-08-11T11:34:07.756Z,99934.67
2018-08-11T11:36:35.432Z,99922.94
2018-08-11T11:39:04.066Z,99923.82
2018-08-11T11:41:31.757Z,99918.26
2018-08-11T11:43:59.462Z,99920.93
2018-08-11T11:46:27.244Z,99910.28
2018-08-11T11:48:54.937Z,99930.11
2018-08-11T11:51:22.635Z,99923.16
2018-08-11T11:53:50.353Z,99920.97
2018-08-11T11:56:18.055Z,99918.36
2018-08-11T11:58:45.738Z,99918.69
2018-08-11T12:01:13.449Z,99921.89
2018-08-11T12:03:41.126Z,99921.01
2018-08-11T12:06:08.810Z,99916.72
2018-08-11T12:08:36.516Z,99901.47
2018-08-11T12:11:04.226Z,99903.41
2018-08-11T12:13:31.922Z,99899.06
2018-08-11T12:15:59.598Z,99894.34
2018-08-11T12:18:27.346Z,99894.11
2018-08-11T12:20:55.038Z,99889.76
2018-08-11T12:23:22.706Z,99894.48
2018-08-11T12:25:50.382Z,99885.25
2018-08-11T12:28:18.074Z,99873.98
2018-08-11T12:30:45.800Z,99868.27
2018-08-11T12:33:13.499Z,99868.72
2018-08-11T12:35:41.227Z,99866.45
2018-08-11T12:38:08.923Z,99867.22
2018-08-11T12:40:36.631Z,99864.13
2018-08-11T12:43:04.370Z,99862.75
2018-08-11T12:45:32.040Z,99855.09
2018-08-11T12:47:59.811Z,99850.64
2018-08-11T12:50:27.535Z,99859.09
2018-08-11T12:52:55.217Z,99847.72
2018-08-11T12:55:22.966Z,99843.61
2018-08-11T12:57:50.698Z,99846.70
2018-08-11T13:00:18.390Z,99840.34
2018-08-11T13:02:46.058Z,99849.56
2018-08-11T13:05:13.721Z,99853.12
2018-08-11T13:07:41.969Z,99855.53
2018-08-11T13:10:09.744Z,99857.16
2018-08-11T13:12:37.720Z,99852.88
2018-08-11T13:15:05.921Z,99857.67
2018-08-11T13:17:33.618Z,99850.23
2018-08-11T13:20:01.299Z,99853.78
2018-08-11T13:22:29.087Z,99850.93
2018-08-11T13:24:56.774Z,99853.55
2018-08-11T13:27:24.477Z,99844.61
2018-08-11T13:29:52.525Z,99826.42
2018-08-11T13:32:20.217Z,99828.36
2018-08-11T13:34:47.981Z,99826.05
2018-08-11T13:37:15.670Z,99826.39
2018-08-11T13:39:48.078Z,99821.22
2018-08-11T13:42:15.746Z,99820.47
2018-08-11T13:44:43.442Z,99828.52
2018-08-11T13:47:11.123Z,99818.22
2018-08-11T13:49:38.925Z,99817.30
2018-08-11T13:52:06.656Z,99818.22
2018-08-11T13:54:34.356Z,99807.20
2018-08-11T13:57:02.021Z,99816.10
2018-08-11T13:59:29.692Z,99816.17
2018-08-11T14:01:57.383Z,99806.97
2018-08-11T14:04:25.165Z,99806.88
2018-08-11T14:06:52.840Z,99811.84
2018-08-11T14:09:20.553Z,99809.78
2018-08-11T14:11:48.237Z,99803.61
2018-08-11T14:14:15.915Z,99805.12
2018-08-11T14:16:43.601Z,99804.55
2018-08-11T14:19:11.283Z,99801.36
2018-08-11T14:21:38.975Z,99794.58
2018-08-11T14:24:06.733Z,99801.27
2018-08-11T14:26:34.434Z,99798.23
2018-08-11T14:29:02.149Z,99791.53
2018-08-11T14:31:29.832Z,99793.98
2018-08-11T14:33:57.629Z,99786.48
2018-08-11T14:36:25.293Z,99783.44
2018-08-11T14:38:52.962Z,99786.98
2018-08-11T14:41:20.677Z,99788.55
2018-08-11T14:43:48.471Z,99787.66
2018-08-11T14:46:16.126Z,99784.30
2018-08-11T14:48:43.907Z,99791.21
2018-08-11T14:51:11.667Z,99787.37
2018-08-11T14:53:39.365Z,99787.00
2018-08-11T14:56:07.101Z,99785.95
2018-08-11T14:58:34.802Z,99776.38
2018-08-11T15:01:02.464Z,99774.73
2018-08-11T15:03:30.325Z,99775.66
2018-08-11T15:05:58.058Z,99777.93
2018-08-11T15:08:25.725Z,99784.64
2018-08-11T15:10:53.477Z,99774.57
2018-08-11T15:15:54.340Z,99774.66
2018-08-11T15:18:22.500Z,99773.33
2018-08-11T15:20:50.161Z,99772.34
2018-08-11T15:23:17.925Z,99771.03
2018-08-11T15:25:45.645Z,99768.66
2018-08-11T15:28:13.370Z,99767.04
2018-08-11T15:30:41.187Z,99770.98
2018-08-11T15:33:08.873Z,99766.40
2018-08-11T15:35:36.576Z,99768.25
2018-08-11T15:38:04.317Z,99758.56
2018-08-11T15:40:32.297Z,99762.03
2018-08-11T15:43:00.010Z,99758.35
2018-08-11T15:45:27.769Z,99766.27
2018-08-11T15:47:55.482Z,99762.84
2018-08-11T15:50:23.155Z,99766.36
2018-08-11T15:52:50.865Z,99761.96
2018-08-11T15:55:18.557Z,99756.91
2018-08-11T15:57:46.250Z,99751.95
2018-08-11T16:00:13.997Z,99754.00
2018-08-11T16:02:41.703Z,99749.75
2018-08-11T16:05:09.450Z,99755.67
2018-08-11T16:07:37.158Z,99749.80
2018-08-11T16:10:06.102Z,99743.39
2018-08-11T16:12:34.034Z,99748.53
2018-08-11T16:15:01.720Z,99751.11
2018-08-11T16:17:29.413Z,99748.74
2018-08-11T16:19:57.097Z,99750.51
2018-08-11T16:22:24.788Z,99752.80
2018-08-11T16:24:52.496Z,99752.46
2018-08-11T16:27:20.232Z,99755.25
2018-08-11T16:29:47.991Z,99759.68
2018-08-11T16:32:15.710Z,99756.80
2018-08-11T16:34:43.398Z,99759.52
2018-08-11T16:37:11.133Z,99765.02
2018-08-11T16:39:38.914Z,99763.52
2018-08-11T16:42:06.655Z,99761.01
2018-08-11T16:44:34.370Z,99762.20
2018-08-11T16:47:02.058Z,99762.47
2018-08-11T16:49:29.729Z,99764.09
2018-08-11T16:51:57.559Z,99773.70
2018-08-11T16:54:25.237Z,99771.83
2018-08-11T16:56:52.898Z,99766.78
2018-08-11T16:59:20.635Z,99770.17
2018-08-11T17:01:48.253Z,99766.80
2018-08-11T17:04:15.984Z,99765.67
2018-08-11T17:06:43.627Z,99766.72
2018-08-11T17:09:11.722Z,99769.02
2018-08-11T17:11:39.378Z,99768.92
2018-08-11T17:14:07.534Z,99768.14
2018-08-11T17:16:35.554Z,99765.72
2018-08-11T17:19:03.253Z,99770.55
2018-08-11T17:21:30.929Z,99771.27
2018-08-11T17:23:58.894Z,99777.29
2018-08-11T17:26:26.561Z,99771.34
2018-08-11T17:28:54.266Z,99779.13
2018-08-11T17:31:21.982Z,99776.59
2018-08-11T17:33:49.641Z,99778.96
2018-08-11T17:36:17.452Z,99774.44
2018-08-11T17:38:45.144Z,99779.79
2018-08-11T17:41:12.823Z,99775.15
2018-08-11T17:43:40.508Z,99776.31
2018-08-11T17:46:08.163Z,99781.90
2018-08-11T17:48:35.871Z,99779.82
2018-08-11T17:51:03.585Z,99787.26
2018-08-11T17:53:31.286Z,99784.28
2018-08-11T17:55:59.097Z,99785.97
2018-08-11T17:58:26.778Z,99789.08
2018-08-11T18:00:54.481Z,99789.48
2018-08-11T18:03:22.141Z,99802.78
2018-08-11T18:05:49.856Z,99803.08
2018-08-11T18:08:17.606Z,99801.98
2018-08-11T18:10:45.417Z,99807.55
2018-08-11T18:13:13.201Z,99809.44
2018-08-11T18:15:40.918Z,99818.64
2018-08-11T18:18:08.714Z,99818.91
2018-08-11T18:20:36.454Z,99822.24
2018-08-11T18:23:08.086Z,99827.76
2018-08-11T18:25:36.015Z,99832.47
2018-08-11T18:28:03.746Z,99832.44
2018-08-11T18:30:31.445Z,99834.62
2018-08-11T18:32:59.166Z,99826.64
2018-08-11T18:35:26.881Z,99829.39
2018-08-11T18:37:54.667Z,99837.95
2018-08-11T18:40:22.329Z,99834.11
2018-08-11T18:42:50.019Z,99840.16
2018-08-11T18:45:17.717Z,99841.02
2018-08-11T18:47:45.436Z,99841.87
2018-08-11T18:50:13.214Z,99841.05
2018-08-11T18:52:40.957Z,99846.00
2018-08-11T18:55:09.778Z,99836.36
2018-08-11T18:57:37.715Z,99848.20
2018-08-11T19:00:11.997Z,99845.44
2018-08-11T19:02:39.749Z,99847.63
2018-08-11T19:05:07.522Z,99841.28
2018-08-11T19:07:35.261Z,99845.98
2018-08-11T19:10:03.122Z,99847.92
2018-08-11T19:12:30.836Z,99851.80
2018-08-11T19:14:58.655Z,99841.59
2018-08-11T19:17:26.416Z,99843.22
2018-08-11T19:19:54.270Z,99845.41
2018-08-11T19:22:22.044Z,99850.34
2018-08-11T19:24:49.790Z,99847.89
2018-08-11T19:27:17.572Z,99843.21
2018-08-11T19:29:45.281Z,99843.74
2018-08-11T19:32:12.964Z,99837.70
2018-08-11T19:34:40.701Z,99841.27
2018-08-11T19:37:08.532Z,99845.11
2018-08-11T19:39:36.233Z,99853.38
2018-08-11T19:42:03.982Z,99847.04
2018-08-11T19:44:31.736Z,99846.87
2018-08-11T19:46:59.457Z,99849.94
2018-08-11T19:49:27.185Z,99852.55
2018-08-11T19:51:55.077Z,99855.31
2018-08-11T19:54:22.909Z,99858.55
2018-08-11T19:56:50.601Z,99846.80
2018-08-11T19:59:18.314Z,99847.94
2018-08-11T20:01:46.114Z,99852.66
2018-08-11T20:04:14.865Z,99853.03
2018-08-11T20:06:44.241Z,99848.09
2018-08-11T20:09:12.656Z,99845.08
2018-08-11T20:11:40.408Z,99837.69
2018-08-11T20:14:08.204Z,99847.06
2018-08-11T20:16:35.952Z,99850.33
2018-08-11T20:19:03.941Z,99844.83
2018-08-11T20:21:31.612Z,99859.41
2018-08-11T20:23:59.438Z,99858.59
2018-08-11T20:26:27.185Z,99864.39
2018-08-11T20:28:54.929Z,99870.40
2018-08-11T20:31:22.713Z,99871.23
2018-08-11T20:33:50.446Z,99868.62
2018-08-11T20:36:18.168Z,99874.06
2018-08-11T20:38:45.892Z,99868.84
2018-08-11T20:41:13.767Z,99875.08
2018-08-11T20:43:41.585Z,99878.39
2018-08-11T20:46:09.465Z,99884.13
2018-08-11T20:48:37.189Z,99890.98
2018-08-11T20:51:04.989Z,99888.53
2018-08-11T20:53:32.754Z,99900.37
2018-08-11T20:56:00.941Z,99892.72
2018-08-11T20:58:28.666Z,99895.11
2018-08-11T21:00:56.535Z,99899.27
2018-08-11T21:03:24.213Z,99901.17
2018-08-11T21:05:52.006Z,99896.64
2018-08-11T21:08:19.694Z,99903.20
2018-08-11T21:10:47.502Z,99899.94
2018-08-11T21:13:15.234Z,99902.70
2018-08-11T21:15:42.937Z,99907.63
2018-08-11T21:18:10.621Z,99902.64
2018-08-11T21:20:38.382Z,99909.26
2018-08-11T21:23:06.114Z,99911.57
2018-08-11T21:25:33.907Z,99906.47
2018-08-11T21:28:01.614Z,99909.14
2018-08-11T21:30:29.313Z,99905.66
2018-08-11T21:32:57.028Z,99906.52
2018-08-11T21:35:24.726Z,99907.30
2018-08-11T21:37:52.441Z,99903.75
2018-08-11T21:40:20.174Z,99909.28
2018-08-11T21:42:47.873Z,99908.92
2018-08-11T21:45:15.662Z,99904.80
2018-08-11T21:47:43.382Z,99903.77
2018-08-11T21:50:11.217Z,99902.42
2018-08-11T21:52:39.391Z,99903.42
2018-08-11T21:55:07.913Z,99901.38
2018-08-11T21:57:36.360Z,99898.42
2018-08-11T22:00:14.190Z,99898.91
2018-08-11T22:02:41.927Z,99895.38
2018-08-11T22:05:09.631Z,99883.69
2018-08-11T22:07:37.374Z,99884.55
2018-08-11T22:10:05.453Z,99886.92
2018-08-11T22:12:33.255Z,99887.76
2018-08-11T22:15:00.954Z,99886.58
2018-08-11T22:17:28.645Z,99883.78
2018-08-11T22:19:56.354Z,99880.20
2018-08-11T22:22:24.032Z,99884.40
2018-08-11T22:24:51.708Z,99885.75
2018-08-11T22:27:19.399Z,99876.89
2018-08-11T22:29:47.141Z,99878.08
2018-08-11T22:32:14.890Z,99871.50
2018-08-11T22:34:42.563Z,99874.84
2018-08-11T22:37:10.223Z,99872.58
2018-08-11T22:39:37.914Z,99869.70
2018-08-11T22:42:05.869Z,99866.58
2018-08-11T22:44:33.587Z,99867.58
2018-08-11T22:47:01.330Z,99864.39
2018-08-11T22:49:28.992Z,99860.36
2018-08-11T22:51:56.725Z,99863.41
2018-08-11T22:54:24.409Z,99866.42
2018-08-11T22:56:52.208Z,99872.47
2018-08-11T22:59:19.926Z,99869.16
2018-08-11T23:01:47.686Z,99867.80
2018-08-11T23:04:15.429Z,99869.41
2018-08-11T23:06:43.085Z,99870.98
2018-08-11T23:09:10.814Z,99864.16
2018-08-11T23:11:38.469Z,99859.83
2018-08-11T23:14:06.167Z,99853.30
2018-08-11T23:16:33.898Z,99859.83
2018-08-11T23:19:01.622Z,99851.30
2018-08-11T23:21:29.377Z,99850.88
2018-08-11T23:23:57.067Z,99850.91
2018-08-11T23:26:24.796Z,99849.63
2018-08-11T23:28:52.529Z,99846.80
2018-08-11T23:31:20.184Z,99851.69
2018-08-11T23:33:47.957Z,99844.99
2018-08-11T23:36:15.694Z,99839.34
2018-08-11T23:38:43.357Z,99845.59
2018-08-11T23:41:11.057Z,99842.41
2018-08-11T23:43:38.741Z,99836.05
2018-08-11T23:46:06.523Z,99830.81
2018-08-11T23:48:34.334Z,99823.95
2018-08-11T23:51:02.060Z,99825.63
2018-08-11T23:53:29.793Z,99824.81
2018-08-11T23:55:57.461Z,99819.84
2018-08-11T23:58:25.369Z,99821.55
